createdAt,value
2018-09-10T00:00:29.582Z,13.68
2018-09-10T00:02:56.515Z,13.80
2018-09-10T00:05:24.387Z,13.99
2018-09-10T00:07:52.151Z,13.78
2018-09-10T00:10:19.024Z,13.73
2018-09-10T00:12:45.978Z,13.58
2018-09-10T00:15:13.227Z,13.41
2018-09-10T00:17:40.191Z,13.30
2018-09-10T00:20:07.167Z,13.13
2018-09-10T00:22:34.107Z,13.26
2018-09-10T00:25:01.043Z,13.37
2018-09-10T00:27:28.056Z,13.26
2018-09-10T00:29:55.907Z,13.00
2018-09-10T00:32:23.051Z,13.03
2018-09-10T00:34:52.999Z,13.38
2018-09-10T00:37:19.950Z,13.58
2018-09-10T00:39:46.911Z,13.76
2018-09-10T00:42:13.876Z,13.80
2018-09-10T00:44:40.827Z,13.78
2018-09-10T00:47:07.788Z,13.44
2018-09-10T00:49:34.751Z,13.29
2018-09-10T00:52:01.624Z,13.22
2018-09-10T00:54:28.559Z,13.05
2018-09-10T00:56:55.511Z,13.06
2018-09-10T00:59:23.391Z,12.97
2018-09-10T01:01:50.364Z,12.97
2018-09-10T01:04:17.313Z,13.01
2018-09-10T01:06:44.255Z,13.07
2018-09-10T01:09:11.226Z,13.23
2018-09-10T01:11:38.678Z,13.32
2018-09-10T01:14:05.664Z,13.52
2018-09-10T01:16:32.584Z,13.49
2018-09-10T01:18:59.574Z,14.08
2018-09-10T01:21:26.503Z,13.52
2018-09-10T01:23:53.519Z,13.71
2018-09-10T01:26:20.467Z,13.58
2018-09-10T01:28:47.392Z,13.47
2018-09-10T01:31:14.367Z,13.48
2018-09-10T01:33:46.972Z,13.49
2018-09-10T01:36:13.898Z,13.60
2018-09-10T01:38:41.039Z,13.45
2018-09-10T01:41:08.015Z,13.30
2018-09-10T01:43:34.992Z,13.23
2018-09-10T01:46:02.123Z,13.20
2018-09-10T01:48:29.922Z,13.79
2018-09-10T01:50:56.940Z,13.38
2018-09-10T01:53:23.821Z,13.66
2018-09-10T01:55:50.686Z,13.76
2018-09-10T01:58:17.643Z,13.89
2018-09-10T02:00:44.599Z,13.81
2018-09-10T02:03:11.559Z,13.86
2018-09-10T02:05:38.480Z,13.89
2018-09-10T02:08:05.463Z,13.62
2018-09-10T02:10:32.422Z,13.52
2018-09-10T02:12:59.387Z,13.47
2018-09-10T02:15:27.364Z,13.22
2018-09-10T02:17:54.334Z,13.00
2018-09-10T02:20:21.328Z,13.02
2018-09-10T02:22:48.239Z,12.78
2018-09-10T02:25:15.193Z,12.89
2018-09-10T02:27:42.193Z,12.65
2018-09-10T02:30:09.943Z,12.60
2018-09-10T02:32:36.884Z,12.62
2018-09-10T02:35:03.767Z,12.89
2018-09-10T02:37:30.809Z,12.99
2018-09-10T02:39:57.730Z,13.21
2018-09-10T02:42:24.716Z,13.06
2018-09-10T02:44:51.679Z,13.25
2018-09-10T02:47:18.635Z,13.11
2018-09-10T02:49:45.563Z,13.04
2018-09-10T02:52:12.548Z,13.00
2018-09-10T02:54:39.534Z,13.20
2018-09-10T02:57:06.507Z,13.11
2018-09-10T02:59:33.450Z,12.92
2018-09-10T03:02:00.416Z,12.73
2018-09-10T03:04:27.352Z,12.71
2018-09-10T03:06:54.323Z,12.58
2018-09-10T03:09:21.272Z,12.46
2018-09-10T03:11:48.227Z,12.33
2018-09-10T03:14:15.177Z,12.33
2018-09-10T03:16:43.135Z,12.29
2018-09-10T03:19:10.127Z,12.27
2018-09-10T03:21:37.063Z,12.31
2018-09-10T03:24:04.042Z,12.21
2018-09-10T03:26:31.066Z,11.88
2018-09-10T03:28:58.068Z,11.92
2018-09-10T03:31:25.083Z,11.92
2018-09-10T03:33:51.980Z,12.00
2018-09-10T03:36:18.864Z,12.16
2018-09-10T03:38:45.858Z,12.03
2018-09-10T03:41:12.839Z,12.05
2018-09-10T03:43:39.759Z,12.27
2018-09-10T03:46:06.803Z,12.30
2018-09-10T03:48:33.759Z,12.06
2018-09-10T03:51:00.670Z,11.69
2018-09-10T03:53:27.593Z,11.87
2018-09-10T03:55:54.584Z,12.01
2018-09-10T03:58:21.535Z,12.03
2018-09-10T04:00:48.617Z,12.01
2018-09-10T04:03:15.585Z,11.96
2018-09-10T04:05:43.979Z,11.84
2018-09-10T04:08:10.911Z,11.91
2018-09-10T04:10:37.868Z,11.77
2018-09-10T04:13:04.822Z,11.68
2018-09-10T04:15:31.825Z,11.91
2018-09-10T04:17:58.711Z,11.98
2018-09-10T04:20:25.683Z,11.98
2018-09-10T04:22:52.627Z,12.18
2018-09-10T04:25:19.574Z,12.02
2018-09-10T04:27:46.575Z,12.78
2018-09-10T04:30:15.068Z,12.12
2018-09-10T04:32:42.003Z,12.01
2018-09-10T04:35:09.564Z,12.13
2018-09-10T04:37:36.971Z,12.24
2018-09-10T04:40:04.191Z,12.05
2018-09-10T04:42:31.072Z,12.06
2018-09-10T04:44:57.984Z,11.98
2018-09-10T04:47:25.023Z,12.09
2018-09-10T04:49:52.013Z,12.01
2018-09-10T04:52:18.964Z,12.03
2018-09-10T04:54:45.875Z,11.89
2018-09-10T04:57:12.799Z,11.79
2018-09-10T04:59:39.775Z,11.92
2018-09-10T05:02:06.723Z,11.47
2018-09-10T05:04:33.728Z,11.54
2018-09-10T05:07:00.632Z,11.30
2018-09-10T05:09:27.591Z,11.83
2018-09-10T05:11:54.536Z,11.97
2018-09-10T05:14:22.532Z,12.02
2018-09-10T05:16:50.535Z,12.09
2018-09-10T05:19:17.523Z,12.17
2018-09-10T05:21:44.437Z,12.01
2018-09-10T05:24:11.384Z,12.01
2018-09-10T05:26:38.345Z,12.15
2018-09-10T05:29:05.300Z,12.38
2018-09-10T05:31:32.259Z,12.48
2018-09-10T05:33:59.252Z,12.58
2018-09-10T05:36:26.164Z,12.65
2018-09-10T05:38:53.162Z,12.81
2018-09-10T05:41:20.084Z,13.00
2018-09-10T05:43:47.047Z,13.09
2018-09-10T05:46:14.050Z,13.14
2018-09-10T05:48:41.983Z,13.43
2018-09-10T05:51:08.943Z,13.50
2018-09-10T05:53:35.900Z,13.56
2018-09-10T05:56:02.844Z,13.51
2018-09-10T05:58:29.807Z,13.68
2018-09-10T06:00:56.776Z,13.63
2018-09-10T06:03:23.736Z,13.79
2018-09-10T06:05:50.679Z,13.84
2018-09-10T06:08:17.607Z,14.23
2018-09-10T06:10:44.708Z,14.41
2018-09-10T06:13:11.692Z,14.45
2018-09-10T06:15:38.619Z,14.55
2018-09-10T06:18:05.755Z,14.45
2018-09-10T06:20:33.506Z,14.45
2018-09-10T06:23:02.623Z,14.41
2018-09-10T06:25:30.138Z,14.80
2018-09-10T06:27:58.143Z,14.82
2018-09-10T06:30:25.141Z,15.15
2018-09-10T06:32:52.052Z,15.31
2018-09-10T06:35:19.179Z,15.54
2018-09-10T06:37:46.152Z,15.64
2018-09-10T06:40:13.112Z,15.74
2018-09-10T06:42:40.071Z,15.94
2018-09-10T06:45:07.671Z,16.55
2018-09-10T06:47:34.616Z,16.32
2018-09-10T06:50:01.593Z,16.43
2018-09-10T06:52:28.512Z,16.35
2018-09-10T06:54:55.473Z,16.57
2018-09-10T06:57:23.486Z,16.57
2018-09-10T06:59:50.468Z,16.79
2018-09-10T07:02:17.332Z,17.06
2018-09-10T07:04:44.295Z,17.29
2018-09-10T07:07:11.260Z,16.89
2018-09-10T07:09:38.239Z,17.19
2018-09-10T07:12:05.254Z,17.33
2018-09-10T07:14:32.155Z,17.69
2018-09-10T07:16:59.107Z,17.85
2018-09-10T07:19:26.078Z,17.87
2018-09-10T07:21:53.037Z,18.10
2018-09-10T07:24:19.955Z,18.16
2018-09-10T07:26:46.990Z,18.35
2018-09-10T07:29:13.859Z,18.46
2018-09-10T07:31:40.885Z,18.63
2018-09-10T07:34:07.822Z,18.30
2018-09-10T07:36:34.772Z,18.48
2018-09-10T07:39:01.729Z,18.49
2018-09-10T07:41:28.687Z,18.95
2018-09-10T07:43:55.726Z,18.98
2018-09-10T07:46:22.607Z,19.25
2018-09-10T07:48:49.603Z,19.33
2018-09-10T07:51:17.435Z,18.89
2018-09-10T07:53:44.364Z,18.79
2018-09-10T07:56:11.231Z,19.18
2018-09-10T07:58:38.212Z,18.87
2018-09-10T08:01:05.236Z,19.35
2018-09-10T08:03:32.267Z,19.66
2018-09-10T08:05:59.143Z,19.55
2018-09-10T08:08:26.135Z,19.93
2018-09-10T08:10:53.095Z,20.01
2018-09-10T08:13:20.070Z,20.32
2018-09-10T08:15:47.024Z,19.85
2018-09-10T08:18:13.976Z,19.83
2018-09-10T08:20:40.895Z,20.29
2018-09-10T08:23:07.879Z,20.43
2018-09-10T08:25:34.841Z,20.51
2018-09-10T08:28:01.841Z,20.58
2018-09-10T08:30:28.773Z,21.37
2018-09-10T08:32:56.728Z,21.37
2018-09-10T08:35:23.688Z,21.69
2018-09-10T08:37:50.550Z,21.34
2018-09-10T08:40:17.503Z,21.52
2018-09-10T08:42:44.508Z,21.76
2018-09-10T08:45:11.428Z,21.47
2018-09-10T08:47:38.380Z,21.92
2018-09-10T08:50:06.243Z,21.78
2018-09-10T08:52:33.098Z,21.93
2018-09-10T08:55:00.228Z,22.08
2018-09-10T08:57:27.747Z,22.26
2018-09-10T08:59:54.849Z,22.08
2018-09-10T09:02:21.898Z,22.58
2018-09-10T09:04:48.804Z,22.34
2018-09-10T09:07:15.780Z,22.59
2018-09-10T09:09:42.741Z,22.44
2018-09-10T09:12:09.747Z,22.53
2018-09-10T09:14:36.648Z,22.61
2018-09-10T09:17:03.635Z,22.77
2018-09-10T09:19:30.543Z,22.88
2018-09-10T09:21:57.538Z,23.20
2018-09-10T09:24:24.487Z,23.53
2018-09-10T09:26:51.415Z,23.89
2018-09-10T09:29:18.396Z,23.91
2018-09-10T09:31:45.372Z,23.55
2018-09-10T09:34:12.316Z,23.09
2018-09-10T09:36:45.007Z,23.31
2018-09-10T09:39:17.731Z,24.06
2018-09-10T09:41:50.371Z,23.54
2018-09-10T09:44:22.963Z,23.87
2018-09-10T09:46:49.939Z,24.22
2018-09-10T09:49:16.948Z,23.98
2018-09-10T09:51:43.860Z,24.66
2018-09-10T09:54:11.143Z,24.71
2018-09-10T09:56:38.154Z,25.11
2018-09-10T09:59:05.032Z,25.31
2018-09-10T10:01:37.808Z,25.80
2018-09-10T10:04:07.769Z,25.64
2018-09-10T10:06:35.379Z,25.93
2018-09-10T10:09:02.331Z,25.48
2018-09-10T10:11:29.227Z,25.69
2018-09-10T10:13:56.202Z,25.43
2018-09-10T10:16:23.234Z,25.41
2018-09-10T10:18:50.124Z,25.76
2018-09-10T10:21:17.082Z,26.34
2018-09-10T10:23:44.083Z,26.36
2018-09-10T10:26:11.027Z,26.07
2018-09-10T10:28:38.005Z,26.48
2018-09-10T10:31:05.134Z,26.73
2018-09-10T10:33:32.069Z,27.53
2018-09-10T10:35:59.022Z,27.53
2018-09-10T10:38:26.003Z,27.58
2018-09-10T10:40:52.948Z,27.42
2018-09-10T10:43:19.829Z,27.73
2018-09-10T10:45:46.736Z,27.27
2018-09-10T10:48:13.711Z,26.98
2018-09-10T10:50:40.706Z,27.28
2018-09-10T10:53:07.655Z,26.88
2018-09-10T10:55:34.583Z,26.66
2018-09-10T10:58:01.537Z,27.17
2018-09-10T11:00:28.512Z,26.82
2018-09-10T11:02:55.470Z,26.39
2018-09-10T11:05:22.471Z,26.42
2018-09-10T11:07:49.472Z,26.39
2018-09-10T11:10:16.440Z,26.44
2018-09-10T11:12:43.381Z,27.12
2018-09-10T11:15:10.346Z,26.96
2018-09-10T11:17:37.281Z,27.12
2018-09-10T11:20:04.716Z,27.66
2018-09-10T11:22:31.645Z,27.58
2018-09-10T11:24:58.581Z,27.59
2018-09-10T11:27:25.540Z,27.46
2018-09-10T11:29:52.540Z,27.63
2018-09-10T11:32:19.455Z,27.80
2018-09-10T11:34:46.576Z,27.85
2018-09-10T11:37:13.475Z,28.34
2018-09-10T11:39:40.555Z,27.65
2018-09-10T11:42:07.495Z,27.58
2018-09-10T11:44:34.643Z,27.93
2018-09-10T11:47:01.965Z,27.75
2018-09-10T11:49:28.851Z,27.44
2018-09-10T11:51:55.855Z,28.32
2018-09-10T11:54:22.788Z,27.60
2018-09-10T11:56:49.890Z,27.61
2018-09-10T11:59:16.932Z,27.67
2018-09-10T12:01:44.194Z,28.07
2018-09-10T12:04:11.199Z,28.00
2018-09-10T12:06:38.111Z,28.20
2018-09-10T12:09:06.311Z,28.21
2018-09-10T12:11:33.232Z,28.27
2018-09-10T12:14:00.188Z,28.62
2018-09-10T12:16:27.155Z,28.35
2018-09-10T12:18:54.079Z,28.69
2018-09-10T12:21:21.293Z,28.96
2018-09-10T12:23:48.216Z,28.67
2018-09-10T12:26:15.351Z,28.51
2018-09-10T12:28:42.387Z,28.62
2018-09-10T12:31:09.303Z,29.04
2018-09-10T12:33:36.510Z,28.80
2018-09-10T12:36:03.418Z,28.54
2018-09-10T12:38:30.387Z,28.62
2018-09-10T12:40:57.455Z,28.46
2018-09-10T12:43:25.364Z,28.20
2018-09-10T12:45:52.388Z,28.58
2018-09-10T12:48:19.327Z,28.85
2018-09-10T12:50:46.260Z,28.91
2018-09-10T12:53:13.247Z,29.00
2018-09-10T12:55:40.395Z,28.73
2018-09-10T12:58:07.391Z,28.45
2018-09-10T13:00:34.326Z,28.92
2018-09-10T13:03:01.383Z,29.37
2018-09-10T13:05:28.355Z,29.14
2018-09-10T13:07:55.409Z,29.29
2018-09-10T13:10:22.607Z,28.78
2018-09-10T13:12:49.541Z,29.08
2018-09-10T13:15:16.518Z,29.05
2018-09-10T13:17:43.443Z,29.24
2018-09-10T13:20:10.419Z,29.13
2018-09-10T13:22:37.351Z,29.09
2018-09-10T13:25:04.376Z,29.23
2018-09-10T13:27:31.379Z,29.45
2018-09-10T13:29:58.336Z,29.35
2018-09-10T13:32:25.305Z,29.25
2018-09-10T13:34:52.252Z,29.19
2018-09-10T13:37:19.201Z,29.16
2018-09-10T13:39:46.197Z,29.22
2018-09-10T13:42:13.111Z,29.28
2018-09-10T13:44:40.102Z,29.14
2018-09-10T13:47:07.109Z,29.24
2018-09-10T13:49:34.054Z,29.06
2018-09-10T13:52:00.950Z,29.07
2018-09-10T13:54:28.059Z,29.32
2018-09-10T13:56:55.071Z,29.10
2018-09-10T13:59:22.146Z,28.90
2018-09-10T14:01:49.090Z,29.03
2018-09-10T14:04:16.075Z,28.98
2018-09-10T14:06:43.063Z,28.78
2018-09-10T14:09:09.975Z,28.39
2018-09-10T14:11:37.408Z,28.44
2018-09-10T14:14:04.506Z,28.60
2018-09-10T14:16:31.427Z,28.51
2018-09-10T14:18:58.381Z,28.74
2018-09-10T14:21:25.283Z,29.08
2018-09-10T14:23:52.208Z,29.25
2018-09-10T14:26:19.135Z,29.58
2018-09-10T14:28:46.172Z,29.49
2018-09-10T14:31:13.101Z,29.67
2018-09-10T14:33:40.071Z,29.92
2018-09-10T14:36:06.975Z,29.66
2018-09-10T14:38:33.979Z,29.84
2018-09-10T14:41:00.923Z,29.57
2018-09-10T14:43:28.097Z,29.36
2018-09-10T14:45:55.039Z,29.36
2018-09-10T14:48:22.185Z,29.25
2018-09-10T14:50:49.193Z,29.59
2018-09-10T14:53:16.195Z,29.34
2018-09-10T14:55:43.171Z,29.21
2018-09-10T14:58:10.051Z,29.43
2018-09-10T15:00:37.009Z,29.41
2018-09-10T15:03:04.028Z,29.05
2018-09-10T15:05:31.047Z,29.19
2018-09-10T15:07:58.108Z,29.07
2018-09-10T15:10:25.031Z,29.15
2018-09-10T15:12:52.017Z,29.28
2018-09-10T15:15:18.946Z,29.18
2018-09-10T15:17:46.124Z,29.31
2018-09-10T15:20:13.032Z,29.33
2018-09-10T15:22:40.504Z,29.17
2018-09-10T15:25:07.517Z,29.04
2018-09-10T15:27:34.451Z,29.16
2018-09-10T15:30:01.375Z,29.23
2018-09-10T15:32:28.360Z,29.04
2018-09-10T15:34:55.358Z,29.11
2018-09-10T15:37:22.275Z,29.09
2018-09-10T15:39:49.240Z,28.81
2018-09-10T15:42:16.290Z,28.83
2018-09-10T15:44:43.247Z,28.73
2018-09-10T15:47:10.260Z,28.86
2018-09-10T15:49:37.272Z,28.90
2018-09-10T15:52:04.211Z,28.74
2018-09-10T15:54:31.348Z,28.73
2018-09-10T15:56:58.247Z,28.72
2018-09-10T15:59:25.192Z,28.77
2018-09-10T16:01:52.247Z,28.69
2018-09-10T16:04:19.213Z,28.71
2018-09-10T16:06:46.172Z,28.64
2018-09-10T16:09:13.127Z,28.61
2018-09-10T16:11:40.166Z,28.58
2018-09-10T16:14:07.123Z,28.57
2018-09-10T16:16:34.107Z,28.64
2018-09-10T16:19:01.351Z,28.63
2018-09-10T16:21:28.316Z,28.62
2018-09-10T16:23:55.276Z,28.57
2018-09-10T16:26:22.212Z,28.73
2018-09-10T16:28:49.192Z,28.82
2018-09-10T16:31:16.155Z,28.73
2018-09-10T16:33:43.160Z,28.60
2018-09-10T16:36:10.040Z,28.55
2018-09-10T16:38:37.041Z,28.55
2018-09-10T16:41:04.005Z,28.36
2018-09-10T16:43:30.981Z,28.44
2018-09-10T16:45:57.899Z,28.23
2018-09-10T16:48:24.970Z,28.23
2018-09-10T16:50:51.907Z,28.12
2018-09-10T16:53:18.873Z,27.93
2018-09-10T16:55:45.818Z,28.05
2018-09-10T16:58:12.779Z,27.87
2018-09-10T17:00:39.795Z,27.70
2018-09-10T17:03:06.719Z,27.72
2018-09-10T17:05:33.657Z,27.61
2018-09-10T17:08:00.891Z,27.27
2018-09-10T17:10:27.889Z,27.08
2018-09-10T17:12:54.835Z,26.90
2018-09-10T17:15:21.813Z,26.65
2018-09-10T17:17:48.747Z,26.27
2018-09-10T17:20:15.712Z,26.06
2018-09-10T17:22:42.683Z,25.95
2018-09-10T17:25:09.648Z,25.60
2018-09-10T17:27:36.578Z,25.68
2018-09-10T17:30:03.760Z,25.54
2018-09-10T17:32:30.695Z,25.52
2018-09-10T17:34:57.649Z,25.37
2018-09-10T17:37:24.604Z,25.24
2018-09-10T17:39:51.611Z,25.11
2018-09-10T17:42:18.595Z,24.98
2018-09-10T17:44:45.494Z,24.73
2018-09-10T17:47:12.638Z,24.79
2018-09-10T17:49:39.436Z,24.71
2018-09-10T17:52:06.335Z,24.64
2018-09-10T17:54:33.450Z,24.58
2018-09-10T17:57:00.400Z,24.38
2018-09-10T17:59:27.352Z,24.38
2018-09-10T18:01:55.184Z,24.24
2018-09-10T18:04:22.164Z,24.19
2018-09-10T18:06:49.131Z,24.06
2018-09-10T18:09:16.102Z,24.18
2018-09-10T18:11:45.075Z,24.40
2018-09-10T18:14:12.556Z,24.53
2018-09-10T18:16:45.966Z,24.50
2018-09-10T18:19:13.531Z,24.65
2018-09-10T18:21:40.501Z,24.51
2018-09-10T18:24:07.446Z,24.38
2018-09-10T18:26:34.432Z,24.37
2018-09-10T18:29:01.389Z,24.34
2018-09-10T18:31:28.331Z,24.42
2018-09-10T18:33:55.320Z,24.31
2018-09-10T18:36:22.211Z,24.40
2018-09-10T18:38:51.587Z,24.40
2018-09-10T18:41:29.405Z,24.37
2018-09-10T18:43:56.328Z,24.40
2018-09-10T18:46:23.255Z,24.32
2018-09-10T18:48:50.272Z,24.04
2018-09-10T18:51:17.175Z,23.86
2018-09-10T18:53:49.071Z,23.84
2018-09-10T18:56:16.047Z,23.89
2018-09-10T18:58:43.279Z,23.61
2018-09-10T19:01:12.447Z,23.55
2018-09-10T19:03:49.191Z,23.55
2018-09-10T19:06:21.090Z,23.21
2018-09-10T19:08:48.583Z,23.06
2018-09-10T19:11:20.099Z,23.05
2018-09-10T19:13:55.775Z,23.05
2018-09-10T19:16:24.569Z,22.81
2018-09-10T19:18:51.526Z,22.89
2018-09-10T19:21:19.451Z,22.96
2018-09-10T19:23:52.503Z,22.65
2018-09-10T19:26:25.499Z,23.18
2018-09-10T19:28:52.460Z,22.76
2018-09-10T19:31:20.292Z,22.64
2018-09-10T19:33:47.287Z,22.42
2018-09-10T19:36:14.275Z,22.49
2018-09-10T19:38:41.256Z,22.51
2018-09-10T19:41:08.148Z,22.34
2018-09-10T19:43:35.133Z,22.41
2018-09-10T19:46:02.126Z,22.37
2018-09-10T19:48:30.107Z,22.37
2018-09-10T19:50:57.069Z,22.23
2018-09-10T19:53:23.996Z,22.20
2018-09-10T19:55:50.996Z,22.28
2018-09-10T19:58:17.940Z,22.17
2018-09-10T20:00:44.843Z,22.12
2018-09-10T20:03:11.782Z,22.27
2018-09-10T20:05:38.756Z,22.24
2018-09-10T20:08:05.741Z,21.98
2018-09-10T20:10:32.744Z,21.85
2018-09-10T20:12:59.733Z,21.91
2018-09-10T20:15:29.855Z,21.76
2018-09-10T20:17:56.832Z,21.45
2018-09-10T20:20:23.805Z,20.84
2018-09-10T20:22:52.785Z,21.04
2018-09-10T20:25:25.991Z,21.36
2018-09-10T20:27:52.951Z,21.49
2018-09-10T20:30:23.720Z,21.54
2018-09-10T20:32:50.656Z,21.60
2018-09-10T20:37:56.659Z,21.46
2018-09-10T20:40:23.619Z,21.62
2018-09-10T20:42:58.361Z,21.65
2018-09-10T20:45:28.179Z,21.55
2018-09-10T20:47:55.095Z,21.59
2018-09-10T20:50:23.127Z,21.44
2018-09-10T20:52:51.131Z,21.38
2018-09-10T20:55:18.706Z,21.56
2018-09-10T20:57:45.603Z,21.12
2018-09-10T21:00:12.589Z,20.98
2018-09-10T21:02:39.551Z,20.98
2018-09-10T21:05:06.500Z,21.10
2018-09-10T21:07:33.489Z,20.97
2018-09-10T21:10:00.424Z,20.99
2018-09-10T21:12:27.393Z,21.03
2018-09-10T21:14:54.323Z,21.03
2018-09-10T21:17:21.298Z,20.63
2018-09-10T21:19:49.139Z,20.46
2018-09-10T21:22:16.119Z,20.54
2018-09-10T21:24:43.088Z,20.54
2018-09-10T21:27:12.111Z,20.49
2018-09-10T21:29:43.660Z,20.57
2018-09-10T21:32:10.683Z,20.78
2018-09-10T21:34:39.715Z,20.82
2018-09-10T21:37:07.187Z,20.73
2018-09-10T21:39:34.138Z,20.82
2018-09-10T21:42:01.314Z,20.68
2018-09-10T21:44:28.255Z,20.56
2018-09-10T21:46:55.236Z,20.70
2018-09-10T21:49:22.171Z,21.07
2018-09-10T21:51:50.196Z,20.41
2018-09-10T21:54:17.144Z,20.47
2018-09-10T21:57:00.780Z,20.38
2018-09-10T21:59:28.779Z,20.39
2018-09-10T22:01:56.755Z,20.21
2018-09-10T22:04:25.198Z,20.09
2018-09-10T22:06:55.177Z,20.18
2018-09-10T22:09:22.107Z,19.83
2018-09-10T22:11:54.715Z,19.86
2018-09-10T22:14:21.679Z,19.75
2018-09-10T22:16:50.616Z,19.72
2018-09-10T22:19:22.256Z,19.48
2018-09-10T22:21:49.183Z,19.45
2018-09-10T22:24:16.152Z,19.48
2018-09-10T22:26:45.160Z,19.62
2018-09-10T22:29:12.099Z,19.62
2018-09-10T22:31:39.063Z,19.56
2018-09-10T22:34:07.083Z,19.69
2018-09-10T22:36:34.855Z,19.85
2018-09-10T22:39:01.851Z,19.77
2018-09-10T22:41:28.834Z,19.73
2018-09-10T22:43:55.799Z,19.74
2018-09-10T22:46:22.779Z,19.79
2018-09-10T22:48:49.687Z,19.76
2018-09-10T22:51:18.083Z,19.76
2018-09-10T22:53:49.800Z,19.78
2018-09-10T22:56:16.703Z,19.71
2018-09-10T22:58:43.703Z,19.65
2018-09-10T23:01:10.654Z,19.66
2018-09-10T23:03:37.611Z,19.56
2018-09-10T23:06:04.593Z,19.61
2018-09-10T23:08:32.506Z,19.55
2018-09-10T23:11:02.382Z,19.46
2018-09-10T23:13:30.271Z,19.38
2018-09-10T23:15:57.224Z,19.24
2018-09-10T23:18:31.062Z,18.93
2018-09-10T23:20:58.020Z,18.49
2018-09-10T23:23:24.919Z,18.21
2018-09-10T23:25:57.431Z,18.12
2018-09-10T23:28:24.363Z,18.23
2018-09-10T23:30:53.391Z,17.92
2018-09-10T23:33:20.328Z,17.95
2018-09-10T23:35:47.330Z,18.21
2018-09-10T23:38:17.539Z,18.18
2018-09-10T23:40:44.474Z,18.28
2018-09-10T23:43:11.441Z,18.07
2018-09-10T23:45:38.438Z,17.99
2018-09-10T23:48:05.606Z,17.47
2018-09-10T23:50:32.627Z,17.33
2018-09-10T23:53:02.595Z,17.50
2018-09-10T23:55:29.515Z,17.13
2018-09-10T23:57:56.455Z,16.85
